createdAt,value
2023-02-21T00:00:58.681Z,23.59
2023-02-21T00:01:58.704Z,23.55
2023-02-21T00:02:58.655Z,23.59
2023-02-21T00:03:58.639Z,23.58
2023-02-21T00:04:58.608Z,23.53
2023-02-21T00:05:58.626Z,23.53
2023-02-21T00:06:58.569Z,23.55
2023-02-21T00:07:58.562Z,23.53
2023-02-21T00:08:58.528Z,23.53
2023-02-21T00:09:58.517Z,23.50
2023-02-21T00:10:58.494Z,23.52
2023-02-21T00:11:58.482Z,23.52
2023-02-21T00:12:58.460Z,23.53
2023-02-21T00:13:58.452Z,23.53
2023-02-21T00:14:58.413Z,23.53
2023-02-21T00:15:58.393Z,23.52
2023-02-21T00:16:58.372Z,23.53
2023-02-21T00:17:58.351Z,23.53
2023-02-21T00:18:58.337Z,23.53
2023-02-21T00:19:58.309Z,23.52
2023-02-21T00:20:58.290Z,23.55
2023-02-21T00:21:58.279Z,23.53
2023-02-21T00:22:58.259Z,23.53
2023-02-21T00:23:58.241Z,23.53
2023-02-21T00:24:58.231Z,23.52
2023-02-21T00:25:58.210Z,23.52
2023-02-21T00:26:58.194Z,23.52
2023-02-21T00:27:58.178Z,23.52
2023-02-21T00:28:58.148Z,23.50
2023-02-21T00:29:58.137Z,23.49
2023-02-21T00:30:58.187Z,23.52
2023-02-21T00:31:58.089Z,23.58
2023-02-21T00:32:58.120Z,23.55
2023-02-21T00:33:58.069Z,23.55
2023-02-21T00:34:58.035Z,23.53
2023-02-21T00:35:58.023Z,23.55
2023-02-21T00:36:57.993Z,23.55
2023-02-21T00:37:57.981Z,23.53
2023-02-21T00:38:57.967Z,23.53
2023-02-21T00:39:57.961Z,23.50
2023-02-21T00:40:57.949Z,23.55
2023-02-21T00:41:57.927Z,23.55
2023-02-21T00:42:57.899Z,23.59
2023-02-21T00:43:57.885Z,23.55
2023-02-21T00:44:57.871Z,23.56
2023-02-21T00:45:57.907Z,23.56
2023-02-21T00:46:57.838Z,23.56
2023-02-21T00:47:57.830Z,23.55
2023-02-21T00:48:57.799Z,23.56
2023-02-21T00:49:57.770Z,23.58
2023-02-21T00:50:57.754Z,23.59
2023-02-21T00:51:57.731Z,23.55
2023-02-21T00:52:57.711Z,23.58
2023-02-21T00:53:57.704Z,23.60
2023-02-21T00:54:57.702Z,23.59
2023-02-21T00:55:57.670Z,23.59
2023-02-21T00:56:57.660Z,23.59
2023-02-21T00:57:57.636Z,23.58
2023-02-21T00:58:57.629Z,23.58
2023-02-21T00:59:57.618Z,23.56
2023-02-21T01:00:57.627Z,23.58
2023-02-21T01:01:57.599Z,23.56
2023-02-21T01:02:57.579Z,23.58
2023-02-21T01:03:57.592Z,23.56
2023-02-21T01:04:57.539Z,23.56
2023-02-21T01:05:57.523Z,23.56
2023-02-21T01:06:57.519Z,23.56
2023-02-21T01:07:57.510Z,23.53
2023-02-21T01:08:57.483Z,23.53
2023-02-21T01:09:57.464Z,23.52
2023-02-21T01:10:57.449Z,23.53
2023-02-21T01:11:57.428Z,23.53
2023-02-21T01:12:57.425Z,23.53
2023-02-21T01:13:57.394Z,23.50
2023-02-21T01:14:57.376Z,23.49
2023-02-21T01:15:57.383Z,23.49
2023-02-21T01:17:01.906Z,23.52
2023-02-21T01:17:58.325Z,23.52
2023-02-21T01:18:57.316Z,23.53
2023-02-21T01:19:57.302Z,23.52
2023-02-21T01:20:57.276Z,23.49
2023-02-21T01:21:57.258Z,23.48
2023-02-21T01:22:57.236Z,23.50
2023-02-21T01:23:57.223Z,23.50
2023-02-21T01:24:57.208Z,23.50
2023-02-21T01:25:57.197Z,23.50
2023-02-21T01:26:57.182Z,23.48
2023-02-21T01:27:57.146Z,23.46
2023-02-21T01:28:57.143Z,23.49
2023-02-21T01:29:57.123Z,23.49
2023-02-21T01:30:57.162Z,23.48
2023-02-21T01:31:57.117Z,23.49
2023-02-21T01:32:57.078Z,23.49
2023-02-21T01:33:57.055Z,23.48
2023-02-21T01:34:57.054Z,23.50
2023-02-21T01:35:57.021Z,23.49
2023-02-21T01:36:57.006Z,23.45
2023-02-21T01:37:56.989Z,23.48
2023-02-21T01:38:56.970Z,23.46
2023-02-21T01:39:56.975Z,23.48
2023-02-21T01:40:56.940Z,23.48
2023-02-21T01:41:56.922Z,23.46
2023-02-21T01:42:56.909Z,23.48
2023-02-21T01:43:56.881Z,23.48
2023-02-21T01:44:56.910Z,23.46
2023-02-21T01:45:56.850Z,23.46
2023-02-21T01:46:56.844Z,23.52
2023-02-21T01:47:56.831Z,23.52
2023-02-21T01:48:56.803Z,23.49
2023-02-21T01:49:56.787Z,23.49
2023-02-21T01:50:56.753Z,23.50
2023-02-21T01:51:56.738Z,23.52
2023-02-21T01:52:56.723Z,23.49
2023-02-21T01:53:56.709Z,23.49
2023-02-21T01:54:56.688Z,23.48
2023-02-21T01:55:56.678Z,23.49
2023-02-21T01:56:56.644Z,23.48
2023-02-21T01:57:56.629Z,23.52
2023-02-21T01:58:56.612Z,23.48
2023-02-21T01:59:56.593Z,23.48
2023-02-21T02:00:56.582Z,23.48
2023-02-21T02:01:56.553Z,23.46
2023-02-21T02:02:56.557Z,23.48
2023-02-21T02:03:56.514Z,23.46
2023-02-21T02:04:56.512Z,23.49
2023-02-21T02:05:56.511Z,23.49
2023-02-21T02:06:56.493Z,23.49
2023-02-21T02:07:56.488Z,23.48
2023-02-21T02:08:56.493Z,23.48
2023-02-21T02:09:56.441Z,23.55
2023-02-21T02:10:56.436Z,23.49
2023-02-21T02:11:56.403Z,23.49
2023-02-21T02:12:56.426Z,23.50
2023-02-21T02:13:56.374Z,23.50
2023-02-21T02:14:56.372Z,23.50
2023-02-21T02:15:56.368Z,23.53
2023-02-21T02:16:56.347Z,23.53
2023-02-21T02:17:56.334Z,23.50
2023-02-21T02:18:56.332Z,23.50
2023-02-21T02:19:56.310Z,23.49
2023-02-21T02:20:56.292Z,23.50
2023-02-21T02:21:56.276Z,23.50
2023-02-21T02:22:56.258Z,23.50
2023-02-21T02:23:56.242Z,23.48
2023-02-21T02:24:56.227Z,23.48
2023-02-21T02:25:56.221Z,23.46
2023-02-21T02:26:56.191Z,23.48
2023-02-21T02:27:56.193Z,23.46
2023-02-21T02:28:56.187Z,23.44
2023-02-21T02:29:56.159Z,23.46
2023-02-21T02:30:56.169Z,23.46
2023-02-21T02:31:56.266Z,23.46
2023-02-21T02:32:56.121Z,23.46
2023-02-21T02:33:56.108Z,23.48
2023-02-21T02:34:56.089Z,23.49
2023-02-21T02:35:56.070Z,23.46
2023-02-21T02:36:56.058Z,23.49
2023-02-21T02:37:56.033Z,23.45
2023-02-21T02:38:56.027Z,23.45
2023-02-21T02:39:56.000Z,23.45
2023-02-21T02:40:55.996Z,23.48
2023-02-21T02:41:55.975Z,23.46
2023-02-21T02:42:55.963Z,23.46
2023-02-21T02:43:55.937Z,23.46
2023-02-21T02:44:55.918Z,23.46
2023-02-21T02:45:55.902Z,23.46
2023-02-21T02:46:55.906Z,23.44
2023-02-21T02:47:55.864Z,23.45
2023-02-21T02:48:55.849Z,23.49
2023-02-21T02:49:55.842Z,23.45
2023-02-21T02:50:55.842Z,23.45
2023-02-21T02:51:55.813Z,23.44
2023-02-21T02:52:55.815Z,23.48
2023-02-21T02:53:55.798Z,23.46
2023-02-21T02:54:55.772Z,23.50
2023-02-21T02:55:55.765Z,23.46
2023-02-21T02:56:55.746Z,23.46
2023-02-21T02:57:55.728Z,23.52
2023-02-21T02:58:55.727Z,23.49
2023-02-21T02:59:55.712Z,23.49
2023-02-21T03:00:55.700Z,23.49
2023-02-21T03:01:55.729Z,23.49
2023-02-21T03:02:55.654Z,23.49
2023-02-21T03:03:55.760Z,23.49
2023-02-21T03:04:55.626Z,23.49
2023-02-21T03:05:55.605Z,23.49
2023-02-21T03:06:55.604Z,23.50
2023-02-21T03:07:55.579Z,23.50
2023-02-21T03:08:55.564Z,23.49
2023-02-21T03:09:55.537Z,23.52
2023-02-21T03:10:55.533Z,23.50
2023-02-21T03:11:55.525Z,23.49
2023-02-21T03:12:55.535Z,23.46
2023-02-21T03:13:55.501Z,23.49
2023-02-21T03:14:55.496Z,23.49
2023-02-21T03:15:55.515Z,23.48
2023-02-21T03:16:55.472Z,23.50
2023-02-21T03:17:55.453Z,23.52
2023-02-21T03:18:55.442Z,23.49
2023-02-21T03:19:55.437Z,23.45
2023-02-21T03:20:55.436Z,23.45
2023-02-21T03:21:55.414Z,23.48
2023-02-21T03:22:55.410Z,23.48
2023-02-21T03:23:55.394Z,23.45
2023-02-21T03:24:55.385Z,23.48
2023-02-21T03:25:55.381Z,23.46
2023-02-21T03:26:55.382Z,23.48
2023-02-21T03:27:55.367Z,23.50
2023-02-21T03:28:55.337Z,23.46
2023-02-21T03:29:55.317Z,23.49
2023-02-21T03:30:55.363Z,23.49
2023-02-21T03:31:55.444Z,23.46
2023-02-21T03:32:55.295Z,23.48
2023-02-21T03:33:55.292Z,23.48
2023-02-21T03:34:55.259Z,23.46
2023-02-21T03:35:55.246Z,23.45
2023-02-21T03:36:55.239Z,23.45
2023-02-21T03:37:55.214Z,23.44
2023-02-21T03:38:55.214Z,23.45
2023-02-21T03:39:55.214Z,23.48
2023-02-21T03:40:55.172Z,23.46
2023-02-21T03:41:55.171Z,23.49
2023-02-21T03:42:55.167Z,23.49
2023-02-21T03:43:55.135Z,23.48
2023-02-21T03:44:55.113Z,23.50
2023-02-21T03:45:55.113Z,23.46
2023-02-21T03:46:55.104Z,23.46
2023-02-21T03:47:55.069Z,23.44
2023-02-21T03:48:55.054Z,23.45
2023-02-21T03:49:55.032Z,23.50
2023-02-21T03:50:55.024Z,23.48
2023-02-21T03:51:55.010Z,23.48
2023-02-21T03:52:55.010Z,23.46
2023-02-21T03:53:54.986Z,23.45
2023-02-21T03:54:54.980Z,23.45
2023-02-21T03:55:54.979Z,23.48
2023-02-21T03:56:54.958Z,23.48
2023-02-21T03:57:54.948Z,23.45
2023-02-21T03:58:54.958Z,23.44
2023-02-21T03:59:54.932Z,23.44
2023-02-21T04:00:54.962Z,23.45
2023-02-21T04:01:54.946Z,23.45
2023-02-21T04:02:54.895Z,23.42
2023-02-21T04:03:54.877Z,23.44
2023-02-21T04:04:54.889Z,23.44
2023-02-21T04:05:54.869Z,23.42
2023-02-21T04:06:54.846Z,23.45
2023-02-21T04:07:54.833Z,23.44
2023-02-21T04:08:54.839Z,23.39
2023-02-21T04:09:54.809Z,23.42
2023-02-21T04:10:54.805Z,23.41
2023-02-21T04:11:54.805Z,23.42
2023-02-21T04:12:54.926Z,23.42
2023-02-21T04:13:54.774Z,23.39
2023-02-21T04:14:54.753Z,23.39
2023-02-21T04:15:54.750Z,23.37
2023-02-21T04:16:54.724Z,23.39
2023-02-21T04:17:54.726Z,23.41
2023-02-21T04:18:54.687Z,23.33
2023-02-21T04:19:54.682Z,23.37
2023-02-21T04:20:54.666Z,23.32
2023-02-21T04:21:54.659Z,23.33
2023-02-21T04:23:03.213Z,23.35
2023-02-21T04:23:55.627Z,23.35
2023-02-21T04:24:54.591Z,23.37
2023-02-21T04:25:54.581Z,23.32
2023-02-21T04:26:54.565Z,23.37
2023-02-21T04:27:54.557Z,23.37
2023-02-21T04:28:54.544Z,23.37
2023-02-21T04:29:54.526Z,23.38
2023-02-21T04:30:54.522Z,23.37
2023-02-21T04:31:54.594Z,23.37
2023-02-21T04:32:54.515Z,23.37
2023-02-21T04:34:05.825Z,23.38
2023-02-21T04:34:54.475Z,23.41
2023-02-21T04:35:54.460Z,23.37
2023-02-21T04:36:54.451Z,23.35
2023-02-21T04:37:54.438Z,23.33
2023-02-21T04:38:54.420Z,23.35
2023-02-21T04:39:54.421Z,23.33
2023-02-21T04:40:54.383Z,23.32
2023-02-21T04:41:54.369Z,23.28
2023-02-21T04:42:54.357Z,23.29
2023-02-21T04:43:54.349Z,23.29
2023-02-21T04:45:00.039Z,23.28
2023-02-21T04:45:55.376Z,23.28
2023-02-21T04:46:54.314Z,23.29
2023-02-21T04:47:54.301Z,23.31
2023-02-21T04:48:54.300Z,23.31
2023-02-21T04:49:54.273Z,23.28
2023-02-21T04:50:57.283Z,23.28
2023-02-21T04:51:55.253Z,23.29
2023-02-21T04:52:54.241Z,23.29
2023-02-21T04:53:54.236Z,23.29
2023-02-21T04:54:54.216Z,23.29
2023-02-21T04:55:54.185Z,23.29
2023-02-21T04:56:54.185Z,23.33
2023-02-21T04:57:54.161Z,23.35
2023-02-21T04:58:54.160Z,23.33
2023-02-21T04:59:54.135Z,23.31
2023-02-21T05:00:54.165Z,23.29
2023-02-21T05:01:54.114Z,23.28
2023-02-21T05:02:54.120Z,23.31
2023-02-21T05:03:54.109Z,23.32
2023-02-21T05:04:54.087Z,23.28
2023-02-21T05:05:54.063Z,23.25
2023-02-21T05:06:54.046Z,23.23
2023-02-21T05:07:54.036Z,23.25
2023-02-21T05:08:54.032Z,23.26
2023-02-21T05:09:54.014Z,23.23
2023-02-21T05:10:54.001Z,23.22
2023-02-21T05:11:53.994Z,23.25
2023-02-21T05:12:53.992Z,23.25
2023-02-21T05:13:53.991Z,23.25
2023-02-21T05:14:53.975Z,23.28
2023-02-21T05:15:53.956Z,23.22
2023-02-21T05:16:53.969Z,23.23
2023-02-21T05:17:53.932Z,23.21
2023-02-21T05:18:53.950Z,23.19
2023-02-21T05:19:53.908Z,23.22
2023-02-21T05:20:53.899Z,23.22
2023-02-21T05:21:53.884Z,23.21
2023-02-21T05:22:55.967Z,23.22
2023-02-21T05:23:53.866Z,23.19
2023-02-21T05:24:53.852Z,23.21
2023-02-21T05:25:53.835Z,23.23
2023-02-21T05:26:53.831Z,23.23
2023-02-21T05:27:53.822Z,23.22
2023-02-21T05:28:53.792Z,23.22
2023-02-21T05:29:53.785Z,23.21
2023-02-21T05:30:53.842Z,23.25
2023-02-21T05:31:53.754Z,23.26
2023-02-21T05:33:53.726Z,23.23
2023-02-21T05:34:53.742Z,23.19
2023-02-21T05:35:53.692Z,23.19
2023-02-21T05:36:53.680Z,23.21
2023-02-21T05:37:53.675Z,23.21
2023-02-21T05:38:53.735Z,23.21
2023-02-21T05:39:53.653Z,23.23
2023-02-21T05:40:53.638Z,23.23
2023-02-21T05:41:53.622Z,23.26
2023-02-21T05:42:53.617Z,23.25
2023-02-21T05:43:53.635Z,23.22
2023-02-21T05:44:53.598Z,23.23
2023-02-21T05:45:53.579Z,23.22
2023-02-21T05:46:53.567Z,23.19
2023-02-21T05:47:53.547Z,23.21
2023-02-21T05:48:53.541Z,23.18
2023-02-21T05:49:53.535Z,23.14
2023-02-21T05:50:53.512Z,23.18
2023-02-21T05:51:53.502Z,23.14
2023-02-21T05:52:53.488Z,23.17
2023-02-21T05:53:53.463Z,23.17
2023-02-21T05:54:53.451Z,23.15
2023-02-21T05:55:53.446Z,23.17
2023-02-21T05:56:53.425Z,23.17
2023-02-21T05:57:53.419Z,23.18
2023-02-21T05:58:53.402Z,23.19
2023-02-21T05:59:53.390Z,23.19
2023-02-21T06:00:53.360Z,23.21
2023-02-21T06:01:53.372Z,23.19
2023-02-21T06:02:53.389Z,23.18
2023-02-21T06:03:53.367Z,23.18
2023-02-21T06:04:53.307Z,23.21
2023-02-21T06:05:53.402Z,23.19
2023-02-21T06:06:53.286Z,23.14
2023-02-21T06:07:53.261Z,23.17
2023-02-21T06:08:53.253Z,23.14
2023-02-21T06:09:53.238Z,23.15
2023-02-21T06:10:53.222Z,23.17
2023-02-21T06:11:53.222Z,23.17
2023-02-21T06:12:53.198Z,23.17
2023-02-21T06:13:53.188Z,23.15
2023-02-21T06:14:53.173Z,23.17
2023-02-21T06:15:53.199Z,23.17
2023-02-21T06:16:53.137Z,23.18
2023-02-21T06:17:53.126Z,23.18
2023-02-21T06:18:53.103Z,23.19
2023-02-21T06:19:53.084Z,23.19
2023-02-21T06:20:53.070Z,23.18
2023-02-21T06:21:53.069Z,23.25
2023-02-21T06:22:53.033Z,23.22
2023-02-21T06:23:53.019Z,23.21
2023-02-21T06:24:53.013Z,23.19
2023-02-21T06:25:52.999Z,23.19
2023-02-21T06:26:52.983Z,23.21
2023-02-21T06:27:53.033Z,23.25
2023-02-21T06:28:52.971Z,23.21
2023-02-21T06:29:52.941Z,23.21
2023-02-21T06:30:53.165Z,23.21
2023-02-21T06:31:52.946Z,23.19
2023-02-21T06:32:52.898Z,23.21
2023-02-21T06:33:52.885Z,23.19
2023-02-21T06:34:52.880Z,23.14
2023-02-21T06:35:52.863Z,23.18
2023-02-21T06:36:52.827Z,23.21
2023-02-21T06:37:52.809Z,23.21
2023-02-21T06:38:52.801Z,23.26
2023-02-21T06:39:52.806Z,23.31
2023-02-21T06:40:52.781Z,23.33
2023-02-21T06:41:52.765Z,23.37
2023-02-21T06:42:52.744Z,23.44
2023-02-21T06:43:52.723Z,23.48
2023-02-21T06:44:52.713Z,23.52
2023-02-21T06:45:52.749Z,23.58
2023-02-21T06:46:52.758Z,23.62
2023-02-21T06:47:52.771Z,23.63
2023-02-21T06:48:52.659Z,23.70
2023-02-21T06:49:52.687Z,23.74
2023-02-21T06:50:52.625Z,23.80
2023-02-21T06:51:52.614Z,23.86
2023-02-21T06:52:52.761Z,23.86
2023-02-21T06:53:52.591Z,23.86
2023-02-21T06:54:52.629Z,23.93
2023-02-21T06:55:52.595Z,23.94
2023-02-21T06:56:52.537Z,23.91
2023-02-21T06:57:52.502Z,23.97
2023-02-21T06:58:52.478Z,24.00
2023-02-21T06:59:52.465Z,24.00
2023-02-21T07:00:52.478Z,24.03
2023-02-21T07:01:52.500Z,24.04
2023-02-21T07:02:52.425Z,24.03
2023-02-21T07:03:52.416Z,24.06
2023-02-21T07:04:52.425Z,24.07
2023-02-21T07:05:52.370Z,24.11
2023-02-21T07:06:52.352Z,24.13
2023-02-21T07:07:52.318Z,24.11
2023-02-21T07:08:52.307Z,24.14
2023-02-21T07:09:52.301Z,24.13
2023-02-21T07:10:52.274Z,24.14
2023-02-21T07:11:52.256Z,24.14
2023-02-21T07:12:52.370Z,24.14
2023-02-21T07:13:52.220Z,24.15
2023-02-21T07:14:52.194Z,24.17
2023-02-21T07:15:52.217Z,24.18
2023-02-21T07:16:52.152Z,24.18
2023-02-21T07:17:52.133Z,24.18
2023-02-21T07:18:52.119Z,24.20
2023-02-21T07:19:52.089Z,24.20
2023-02-21T07:20:52.062Z,24.20
2023-02-21T07:21:52.056Z,24.20
2023-02-21T07:22:52.038Z,24.18
2023-02-21T07:23:52.025Z,24.18
2023-02-21T07:24:52.014Z,24.20
2023-02-21T07:25:51.970Z,24.23
2023-02-21T07:26:51.957Z,24.23
2023-02-21T07:27:51.930Z,24.27
2023-02-21T07:28:51.937Z,24.27
2023-02-21T07:29:51.892Z,24.28
2023-02-21T07:30:51.923Z,24.25
2023-02-21T07:31:51.900Z,24.25
2023-02-21T07:32:51.836Z,24.27
2023-02-21T07:33:51.848Z,24.27
2023-02-21T07:34:51.798Z,24.27
2023-02-21T07:35:51.780Z,24.27
2023-02-21T07:36:51.760Z,24.28
2023-02-21T07:37:51.736Z,24.30
2023-02-21T07:38:51.725Z,24.28
2023-02-21T07:39:51.701Z,24.28
2023-02-21T07:40:51.678Z,24.32
2023-02-21T07:41:51.677Z,24.32
2023-02-21T07:42:51.631Z,24.28
2023-02-21T07:43:51.648Z,24.30
2023-02-21T07:44:51.627Z,24.30
2023-02-21T07:45:51.581Z,24.28
2023-02-21T07:46:51.560Z,24.32
2023-02-21T07:47:51.560Z,24.28
2023-02-21T07:48:51.507Z,24.31
2023-02-21T07:49:51.494Z,24.32
2023-02-21T07:50:51.462Z,24.34
2023-02-21T07:51:51.433Z,24.30
2023-02-21T07:52:51.407Z,24.32
2023-02-21T07:53:51.390Z,24.34
2023-02-21T07:54:51.362Z,24.38
2023-02-21T07:55:51.351Z,24.36
2023-02-21T07:56:51.324Z,24.36
2023-02-21T07:57:51.295Z,24.41
2023-02-21T07:58:51.270Z,24.42
2023-02-21T07:59:51.246Z,24.42
2023-02-21T08:00:51.224Z,24.44
2023-02-21T08:01:51.260Z,24.45
2023-02-21T08:02:51.159Z,24.47
2023-02-21T08:03:51.152Z,24.47
2023-02-21T08:04:51.140Z,24.51
2023-02-21T08:05:51.076Z,24.50
2023-02-21T08:06:51.080Z,24.54
2023-02-21T08:07:51.047Z,24.59
2023-02-21T08:08:51.056Z,24.59
2023-02-21T08:09:50.973Z,24.64
2023-02-21T08:10:50.987Z,24.65
2023-02-21T08:11:50.914Z,24.64
2023-02-21T08:12:50.940Z,24.59
2023-02-21T08:13:50.838Z,24.61
2023-02-21T08:14:50.837Z,24.62
2023-02-21T08:15:50.844Z,24.61
2023-02-21T08:16:50.740Z,24.64
2023-02-21T08:17:50.701Z,24.68
2023-02-21T08:18:50.698Z,24.66
2023-02-21T08:19:50.641Z,24.71
2023-02-21T08:20:50.605Z,24.69
2023-02-21T08:21:50.581Z,24.71
2023-02-21T08:22:50.554Z,24.69
2023-02-21T08:23:50.526Z,24.73
2023-02-21T08:24:50.516Z,24.76
2023-02-21T08:25:50.552Z,24.76
2023-02-21T08:26:50.452Z,24.79
2023-02-21T08:27:50.415Z,24.83
2023-02-21T08:28:50.377Z,24.86
2023-02-21T08:29:50.363Z,24.85
2023-02-21T08:30:50.319Z,24.87
2023-02-21T08:31:50.351Z,24.87
2023-02-21T08:32:50.244Z,24.87
2023-02-21T08:33:50.234Z,24.87
2023-02-21T08:34:50.185Z,24.90
2023-02-21T08:35:50.144Z,24.86
2023-02-21T08:36:50.095Z,24.83
2023-02-21T08:37:50.105Z,24.92
2023-02-21T08:38:50.030Z,24.96
2023-02-21T08:39:50.000Z,25.09
2023-02-21T08:40:49.961Z,25.16
2023-02-21T08:41:49.923Z,25.24
2023-02-21T08:42:49.902Z,25.31
2023-02-21T08:43:49.835Z,25.38
2023-02-21T08:44:49.828Z,25.40
2023-02-21T08:45:49.765Z,25.30
2023-02-21T08:46:49.972Z,25.20
2023-02-21T08:47:49.725Z,25.12
2023-02-21T08:48:49.698Z,25.06
2023-02-21T08:49:49.672Z,24.94
2023-02-21T08:50:49.645Z,24.89
2023-02-21T08:51:49.635Z,24.81
2023-02-21T08:52:49.633Z,24.68
2023-02-21T08:53:49.613Z,24.59
2023-02-21T08:54:49.598Z,24.56
2023-02-21T08:55:49.622Z,24.52
2023-02-21T08:56:49.576Z,24.45
2023-02-21T08:57:49.575Z,24.42
2023-02-21T08:58:49.560Z,24.34
2023-02-21T08:59:49.551Z,24.24
2023-02-21T09:00:49.550Z,24.21
2023-02-21T09:01:49.618Z,24.23
2023-02-21T09:02:49.525Z,24.20
2023-02-21T09:03:49.521Z,24.18
2023-02-21T09:04:49.513Z,24.14
2023-02-21T09:05:49.499Z,24.11
2023-02-21T09:06:49.480Z,24.11
2023-02-21T09:07:49.495Z,24.07
2023-02-21T09:08:49.506Z,24.06
2023-02-21T09:09:49.455Z,24.06
2023-02-21T09:10:49.566Z,24.10
2023-02-21T09:11:49.442Z,24.07
2023-02-21T09:12:49.432Z,24.14
2023-02-21T09:13:49.425Z,24.17
2023-02-21T09:14:49.401Z,24.20
2023-02-21T09:15:49.397Z,24.20
2023-02-21T09:16:49.396Z,24.24
2023-02-21T09:17:49.366Z,24.21
2023-02-21T09:18:49.335Z,24.24
2023-02-21T09:19:49.335Z,24.18
2023-02-21T09:20:49.312Z,24.17
2023-02-21T09:21:49.310Z,24.15
2023-02-21T09:22:49.289Z,24.10
2023-02-21T09:23:49.278Z,24.08
2023-02-21T09:24:49.272Z,24.06
2023-02-21T09:25:49.290Z,24.07
2023-02-21T09:26:49.296Z,24.07
2023-02-21T09:27:49.243Z,24.07
2023-02-21T09:28:49.210Z,24.08
2023-02-21T09:29:49.215Z,24.00
2023-02-21T09:30:49.193Z,24.00
2023-02-21T09:31:49.190Z,24.06
2023-02-21T09:32:49.153Z,24.10
2023-02-21T09:33:49.147Z,24.13
2023-02-21T09:34:49.131Z,24.21
2023-02-21T09:35:49.089Z,24.25
2023-02-21T09:36:49.062Z,24.31
2023-02-21T09:37:49.055Z,24.38
2023-02-21T09:38:49.024Z,24.45
2023-02-21T09:39:48.999Z,24.52
2023-02-21T09:40:48.965Z,24.59
2023-02-21T09:41:48.938Z,24.65
2023-02-21T09:42:48.930Z,24.71
2023-02-21T09:43:48.905Z,24.73
2023-02-21T09:44:48.867Z,24.81
2023-02-21T09:45:48.936Z,24.87
2023-02-21T09:46:48.815Z,24.87
2023-02-21T09:47:48.811Z,24.89
2023-02-21T09:48:48.767Z,24.89
2023-02-21T09:49:48.737Z,24.92
2023-02-21T09:50:48.718Z,24.97
2023-02-21T09:51:48.678Z,24.99
2023-02-21T09:52:48.674Z,25.07
2023-02-21T09:53:48.650Z,25.13
2023-02-21T09:54:48.625Z,25.17
2023-02-21T09:55:48.572Z,25.21
2023-02-21T09:56:48.547Z,25.27
2023-02-21T09:57:48.513Z,25.36
2023-02-21T09:58:48.489Z,25.41
2023-02-21T09:59:48.486Z,25.47
2023-02-21T10:00:48.498Z,25.45
2023-02-21T10:01:48.417Z,25.51
2023-02-21T10:02:48.383Z,25.57
2023-02-21T10:03:48.350Z,25.64
2023-02-21T10:04:48.337Z,25.69
2023-02-21T10:05:48.256Z,25.69
2023-02-21T10:06:48.277Z,25.75
2023-02-21T10:07:48.181Z,25.77
2023-02-21T10:08:48.148Z,25.84
2023-02-21T10:09:48.119Z,25.88
2023-02-21T10:10:48.058Z,25.95
2023-02-21T10:11:48.021Z,26.00
2023-02-21T10:12:47.962Z,26.08
2023-02-21T10:13:47.916Z,26.12
2023-02-21T10:14:47.902Z,26.17
2023-02-21T10:15:47.823Z,26.12
2023-02-21T10:16:47.832Z,26.08
2023-02-21T10:17:47.725Z,26.08
2023-02-21T10:18:47.685Z,26.06
2023-02-21T10:19:47.646Z,26.02
2023-02-21T10:20:47.593Z,26.02
2023-02-21T10:21:47.552Z,25.96
2023-02-21T10:22:47.511Z,25.95
2023-02-21T10:23:47.466Z,25.95
2023-02-21T10:24:47.397Z,25.92
2023-02-21T10:25:47.384Z,25.91
2023-02-21T10:26:47.318Z,25.88
2023-02-21T10:27:47.269Z,25.85
2023-02-21T10:28:47.248Z,25.84
2023-02-21T10:29:47.215Z,25.79
2023-02-21T10:30:47.208Z,25.79
2023-02-21T10:31:47.136Z,25.78
2023-02-21T10:32:47.025Z,25.77
2023-02-21T10:33:46.965Z,25.77
2023-02-21T10:34:47.412Z,25.78
2023-02-21T10:35:46.893Z,25.74
2023-02-21T10:36:46.828Z,25.74
2023-02-21T10:37:46.798Z,25.71
2023-02-21T10:38:46.750Z,25.71
2023-02-21T10:39:46.707Z,25.68
2023-02-21T10:40:46.669Z,25.67
2023-02-21T10:41:46.668Z,25.75
2023-02-21T10:42:46.572Z,25.87
2023-02-21T10:43:46.528Z,25.87
2023-02-21T10:44:46.476Z,25.95
2023-02-21T10:45:47.034Z,26.03
2023-02-21T10:46:46.413Z,26.09
2023-02-21T10:47:46.316Z,26.15
2023-02-21T10:48:46.272Z,26.22
2023-02-21T10:49:46.218Z,26.23
2023-02-21T10:50:46.167Z,26.26
2023-02-21T10:51:46.108Z,26.30
2023-02-21T10:52:46.077Z,26.37
2023-02-21T10:53:46.012Z,26.39
2023-02-21T10:54:45.936Z,26.46
2023-02-21T10:55:45.865Z,26.50
2023-02-21T10:56:45.802Z,26.56
2023-02-21T10:57:45.741Z,26.61
2023-02-21T10:58:45.667Z,26.67
2023-02-21T10:59:45.621Z,26.73
2023-02-21T11:00:45.570Z,26.78
2023-02-21T11:01:45.665Z,26.84
2023-02-21T11:02:45.543Z,26.91
2023-02-21T11:03:45.929Z,26.93
2023-02-21T11:04:45.366Z,27.01
2023-02-21T11:05:45.313Z,27.04
2023-02-21T11:06:45.249Z,27.09
2023-02-21T11:07:45.151Z,27.14
2023-02-21T11:08:45.056Z,27.16
2023-02-21T11:09:45.040Z,27.21
2023-02-21T11:10:44.912Z,27.22
2023-02-21T11:11:44.823Z,27.28
2023-02-21T11:12:44.749Z,27.32
2023-02-21T11:13:44.728Z,27.36
2023-02-21T11:14:44.613Z,27.39
2023-02-21T11:15:44.565Z,27.42
2023-02-21T11:16:44.463Z,27.43
2023-02-21T11:17:44.377Z,27.48
2023-02-21T11:18:44.309Z,27.50
2023-02-21T11:19:44.279Z,27.50
2023-02-21T11:20:44.174Z,27.57
2023-02-21T11:21:44.088Z,27.57
2023-02-21T11:22:44.001Z,27.62
2023-02-21T11:23:43.933Z,27.59
2023-02-21T11:24:43.877Z,27.60
2023-02-21T11:25:43.817Z,27.62
2023-02-21T11:26:43.762Z,27.62
2023-02-21T11:27:46.151Z,27.60
2023-02-21T11:28:43.661Z,27.57
2023-02-21T11:29:43.535Z,27.62
2023-02-21T11:30:43.606Z,27.62
2023-02-21T11:31:43.458Z,27.60
2023-02-21T11:32:43.303Z,27.59
2023-02-21T11:33:43.238Z,27.60
2023-02-21T11:34:43.172Z,27.60
2023-02-21T11:35:43.090Z,27.60
2023-02-21T11:36:43.021Z,27.62
2023-02-21T11:37:42.942Z,27.62
2023-02-21T11:38:42.929Z,27.63
2023-02-21T11:39:42.829Z,27.62
2023-02-21T11:40:42.783Z,27.60
2023-02-21T11:41:42.671Z,27.57
2023-02-21T11:42:42.603Z,27.56
2023-02-21T11:43:42.539Z,27.54
2023-02-21T11:44:42.479Z,27.56
2023-02-21T11:45:42.442Z,27.52
2023-02-21T11:46:42.339Z,27.53
2023-02-21T11:47:42.275Z,27.52
2023-02-21T11:48:42.191Z,27.46
2023-02-21T11:49:43.159Z,27.46
2023-02-21T11:50:42.096Z,27.41
2023-02-21T11:51:42.041Z,27.41
2023-02-21T11:52:41.939Z,27.42
2023-02-21T11:53:41.876Z,27.38
2023-02-21T11:54:41.807Z,27.33
2023-02-21T11:55:41.745Z,27.33
2023-02-21T11:56:41.704Z,27.33
2023-02-21T11:57:41.622Z,27.29
2023-02-21T11:58:41.561Z,27.29
2023-02-21T11:59:41.495Z,27.26
2023-02-21T12:00:41.423Z,27.22
2023-02-21T12:01:41.365Z,27.14
2023-02-21T12:02:41.347Z,27.15
2023-02-21T12:03:41.272Z,27.12
2023-02-21T12:04:41.192Z,27.12
2023-02-21T12:05:41.201Z,27.08
2023-02-21T12:06:41.074Z,27.05
2023-02-21T12:07:41.014Z,27.04
2023-02-21T12:08:40.959Z,26.99
2023-02-21T12:09:40.890Z,26.99
2023-02-21T12:10:40.823Z,26.99
2023-02-21T12:11:40.772Z,26.95
2023-02-21T12:12:40.762Z,26.98
2023-02-21T12:13:40.656Z,26.97
2023-02-21T12:14:40.607Z,26.97
2023-02-21T12:15:40.558Z,27.01
2023-02-21T12:16:40.488Z,27.02
2023-02-21T12:17:40.424Z,27.05
2023-02-21T12:18:40.375Z,27.06
2023-02-21T12:19:40.291Z,27.08
2023-02-21T12:20:40.227Z,27.11
2023-02-21T12:21:40.178Z,27.11
2023-02-21T12:22:42.488Z,27.11
2023-02-21T12:23:40.176Z,27.12
2023-02-21T12:24:40.133Z,27.12
2023-02-21T12:25:40.048Z,27.12
2023-02-21T12:26:39.994Z,27.14
2023-02-21T12:27:39.945Z,27.11
2023-02-21T12:28:39.888Z,27.14
2023-02-21T12:29:39.814Z,27.16
2023-02-21T12:30:39.841Z,27.15
2023-02-21T12:31:39.746Z,27.16
2023-02-21T12:32:39.614Z,27.12
2023-02-21T12:33:39.548Z,27.14
2023-02-21T12:34:39.497Z,27.09
2023-02-21T12:35:39.654Z,27.08
2023-02-21T12:36:39.387Z,27.05
2023-02-21T12:37:39.369Z,27.04
2023-02-21T12:38:39.643Z,26.98
2023-02-21T12:39:39.219Z,26.95
2023-02-21T12:40:39.383Z,26.91
2023-02-21T12:41:39.124Z,26.87
2023-02-21T12:42:39.074Z,26.85
2023-02-21T12:43:39.032Z,26.81
2023-02-21T12:44:38.968Z,26.78
2023-02-21T12:45:38.921Z,26.75
2023-02-21T12:46:38.906Z,26.74
2023-02-21T12:47:38.821Z,26.70
2023-02-21T12:48:38.775Z,26.68
2023-02-21T12:49:38.721Z,26.63
2023-02-21T12:50:38.674Z,26.63
2023-02-21T12:51:38.622Z,26.61
2023-02-21T12:52:38.597Z,26.60
2023-02-21T12:53:38.560Z,26.57